Terminal Aerodrome Forecast
Issued by NWS Twin Cities, MN

Home | Current Version | Previous Version | Graphics & Text | Print | Product List | Glossary On
Versions: 1 2 3 4 5 6 7 8 9 10 11 12 13 14
000
FTUS43 KMPX 202346
TAFSTC
TAF
KSTC 202346Z 2100/2124 34008KT P6SM BKN150
     FM210400 00000KT P6SM SCT250
     FM211400 09004KT P6SM SCT100 BKN250
     FM212200 35005KT P6SM BKN200=

USA.gov is the U.S. government's official web portal to all federal, state and local government web resources and services.